sensor_id;sensor_type;location;lat;lon;timestamp;pressure;altitude;pressure_sealevel;temperature;humidity
49611;BME280;35515;48.766;9.176;2023-03-15T00:01:32;97960.47;;;3.98;82.62
49611;BME280;35515;48.766;9.176;2023-03-15T00:04:00;97970.09;;;4.15;81.57
49611;BME280;35515;48.766;9.176;2023-03-15T00:06:26;97976.13;;;4.17;82.12
49611;BME280;35515;48.766;9.176;2023-03-15T00:08:53;97981.19;;;4.12;80.76
49611;BME280;35515;48.766;9.176;2023-03-15T00:11:19;97995.16;;;4.31;80.95
49611;BME280;35515;48.766;9.176;2023-03-15T00:13:46;98001.63;;;4.05;81.69
49611;BME280;35515;48.766;9.176;2023-03-15T00:16:12;98013.03;;;4.39;80.19
49611;BME280;35515;48.766;9.176;2023-03-15T00:18:41;98009.91;;;3.95;81.55
49611;BME280;35515;48.766;9.176;2023-03-15T00:21:09;98032.94;;;3.81;83.61
49611;BME280;35515;48.766;9.176;2023-03-15T00:23:36;98030.53;;;4.26;81.89
49611;BME280;35515;48.766;9.176;2023-03-15T00:26:03;98035.84;;;4.03;80.45
49611;BME280;35515;48.766;9.176;2023-03-15T00:28:29;98033.19;;;3.95;81.28
49611;BME280;35515;48.766;9.176;2023-03-15T00:31:03;98034.47;;;4.07;80.21
49611;BME280;35515;48.766;9.176;2023-03-15T00:33:30;98047.06;;;3.98;80.80
49611;BME280;35515;48.766;9.176;2023-03-15T00:36:02;98049.88;;;4.05;80.28
49611;BME280;35515;48.766;9.176;2023-03-15T00:38:30;98040.25;;;3.88;82.48
49611;BME280;35515;48.766;9.176;2023-03-15T00:40:58;98052.28;;;4.00;81.26
49611;BME280;35515;48.766;9.176;2023-03-15T00:43:24;98047.88;;;4.07;81.02
49611;BME280;35515;48.766;9.176;2023-03-15T00:45:51;98045.53;;;4.12;80.86
49611;BME280;35515;48.766;9.176;2023-03-15T00:48:17;98055.69;;;3.85;82.17
49611;BME280;35515;48.766;9.176;2023-03-15T00:50:44;98058.69;;;3.91;82.87
49611;BME280;35515;48.766;9.176;2023-03-15T00:53:11;98067.41;;;3.84;81.72
49611;BME280;35515;48.766;9.176;2023-03-15T00:55:38;98068.56;;;4.30;80.24
49611;BME280;35515;48.766;9.176;2023-03-15T00:58:06;98087.13;;;4.00;80.86
49611;BME280;35515;48.766;9.176;2023-03-15T01:00:33;98084.78;;;3.97;80.92
49611;BME280;35515;48.766;9.176;2023-03-15T01:03:00;98095.88;;;3.85;81.71
49611;BME280;35515;48.766;9.176;2023-03-15T01:05:26;98095.03;;;3.93;80.95
49611;BME280;35515;48.766;9.176;2023-03-15T01:07:53;98093.66;;;3.89;80.88
49611;BME280;35515;48.766;9.176;2023-03-15T01:10:19;98098.59;;;3.77;82.14
49611;BME280;35515;48.766;9.176;2023-03-15T01:12:47;98102.75;;;3.88;80.23
49611;BME280;35515;48.766;9.176;2023-03-15T01:15:14;98108.13;;;3.80;80.40
49611;BME280;35515;48.766;9.176;2023-03-15T01:17:41;98098.25;;;3.72;81.34
49611;BME280;35515;48.766;9.176;2023-03-15T01:20:09;98096.69;;;3.94;81.35
49611;BME280;35515;48.766;9.176;2023-03-15T01:22:36;98101.88;;;3.96;80.73
49611;BME280;35515;48.766;9.176;2023-03-15T01:25:04;98105.44;;;3.80;81.43
49611;BME280;35515;48.766;9.176;2023-03-15T01:27:30;98109.47;;;3.84;79.67
49611;BME280;35515;48.766;9.176;2023-03-15T01:29:58;98115.97;;;3.90;79.95
49611;BME280;35515;48.766;9.176;2023-03-15T01:32:25;98109.31;;;3.69;79.55
49611;BME280;35515;48.766;9.176;2023-03-15T01:34:52;98111.66;;;3.72;79.40
49611;BME280;35515;48.766;9.176;2023-03-15T01:37:18;98111.66;;;3.56;80.09
49611;BME280;35515;48.766;9.176;2023-03-15T01:39:49;98115.31;;;3.79;79.99
49611;BME280;35515;48.766;9.176;2023-03-15T01:42:16;98116.75;;;4.07;78.50
49611;BME280;35515;48.766;9.176;2023-03-15T01:44:52;98114.28;;;3.89;79.88
49611;BME280;35515;48.766;9.176;2023-03-15T01:47:20;98121.63;;;4.03;78.88
49611;BME280;35515;48.766;9.176;2023-03-15T01:49:53;98132.88;;;3.90;78.83
49611;BME280;35515;48.766;9.176;2023-03-15T01:52:24;98122.69;;;3.85;79.24
49611;BME280;35515;48.766;9.176;2023-03-15T01:54:53;98141.31;;;3.71;79.81
49611;BME280;35515;48.766;9.176;2023-03-15T01:57:23;98140.13;;;3.81;80.33
49611;BME280;35515;48.766;9.176;2023-03-15T01:59:53;98133.06;;;3.80;79.82
49611;BME280;35515;48.766;9.176;2023-03-15T02:02:24;98139.25;;;3.97;79.46
49611;BME280;35515;48.766;9.176;2023-03-15T02:04:55;98147.75;;;4.01;78.75
49611;BME280;35515;48.766;9.176;2023-03-15T02:07:25;98148.81;;;3.83;77.87
49611;BME280;35515;48.766;9.176;2023-03-15T02:09:56;98149.19;;;3.64;79.65
49611;BME280;35515;48.766;9.176;2023-03-15T02:12:24;98153.69;;;3.80;77.89
49611;BME280;35515;48.766;9.176;2023-03-15T02:14:51;98149.16;;;3.80;78.17
49611;BME280;35515;48.766;9.176;2023-03-15T02:17:21;98148.16;;;3.81;78.75
49611;BME280;35515;48.766;9.176;2023-03-15T02:19:55;98154.53;;;3.72;78.47
49611;BME280;35515;48.766;9.176;2023-03-15T02:22:31;98148.47;;;3.78;78.03
49611;BME280;35515;48.766;9.176;2023-03-15T02:25:05;98155.88;;;3.68;78.65
49611;BME280;35515;48.766;9.176;2023-03-15T02:27:36;98161.22;;;3.76;78.53
49611;BME280;35515;48.766;9.176;2023-03-15T02:30:04;98166.25;;;3.71;78.50
49611;BME280;35515;48.766;9.176;2023-03-15T02:32:31;98167.41;;;3.68;79.05
49611;BME280;35515;48.766;9.176;2023-03-15T02:34:57;98169.41;;;3.83;77.68
49611;BME280;35515;48.766;9.176;2023-03-15T02:37:24;98169.56;;;3.73;78.02
49611;BME280;35515;48.766;9.176;2023-03-15T02:39:50;98176.25;;;3.94;77.71
49611;BME280;35515;48.766;9.176;2023-03-15T02:42:17;98174.75;;;3.91;74.81
49611;BME280;35515;48.766;9.176;2023-03-15T02:44:46;98194.03;;;3.95;75.02
49611;BME280;35515;48.766;9.176;2023-03-15T02:47:16;98186.00;;;3.87;75.15
49611;BME280;35515;48.766;9.176;2023-03-15T02:49:45;98192.19;;;3.87;74.94
49611;BME280;35515;48.766;9.176;2023-03-15T02:52:14;98191.03;;;3.81;74.76
49611;BME280;35515;48.766;9.176;2023-03-15T02:54:41;98204.25;;;3.83;73.95
49611;BME280;35515;48.766;9.176;2023-03-15T02:57:08;98196.72;;;3.87;74.44
49611;BME280;35515;48.766;9.176;2023-03-15T02:59:35;98209.78;;;3.90;74.61
49611;BME280;35515;48.766;9.176;2023-03-15T03:02:03;98220.16;;;3.84;73.66
49611;BME280;35515;48.766;9.176;2023-03-15T03:04:30;98223.84;;;3.83;73.66
49611;BME280;35515;48.766;9.176;2023-03-15T03:06:56;98230.19;;;3.74;74.37
49611;BME280;35515;48.766;9.176;2023-03-15T03:09:23;98225.81;;;4.06;72.70
49611;BME280;35515;48.766;9.176;2023-03-15T03:11:50;98233.22;;;3.96;72.39
49611;BME280;35515;48.766;9.176;2023-03-15T03:14:16;98238.94;;;3.68;74.29
49611;BME280;35515;48.766;9.176;2023-03-15T03:16:43;98240.59;;;3.69;74.71
49611;BME280;35515;48.766;9.176;2023-03-15T03:19:11;98248.78;;;3.67;74.06
49611;BME280;35515;48.766;9.176;2023-03-15T03:21:37;98250.81;;;3.74;74.76
49611;BME280;35515;48.766;9.176;2023-03-15T03:24:07;98248.63;;;3.61;73.59
49611;BME280;35515;48.766;9.176;2023-03-15T03:26:34;98248.13;;;3.57;73.78
49611;BME280;35515;48.766;9.176;2023-03-15T03:29:03;98260.03;;;3.55;74.12
49611;BME280;35515;48.766;9.176;2023-03-15T03:31:30;98270.75;;;3.55;74.36
49611;BME280;35515;48.766;9.176;2023-03-15T03:33:58;98268.34;;;3.35;76.03
49611;BME280;35515;48.766;9.176;2023-03-15T03:36:26;98272.03;;;3.50;74.21
49611;BME280;35515;48.766;9.176;2023-03-15T03:38:53;98278.44;;;3.58;74.59
49611;BME280;35515;48.766;9.176;2023-03-15T03:41:21;98279.72;;;3.29;76.40
49611;BME280;35515;48.766;9.176;2023-03-15T03:43:48;98283.75;;;3.33;78.27
49611;BME280;35515;48.766;9.176;2023-03-15T03:46:14;98289.81;;;3.51;76.58
49611;BME280;35515;48.766;9.176;2023-03-15T03:48:41;98296.09;;;3.09;77.83
49611;BME280;35515;48.766;9.176;2023-03-15T03:51:08;98296.38;;;3.06;79.52
49611;BME280;35515;48.766;9.176;2023-03-15T03:53:36;98297.63;;;3.20;77.69
49611;BME280;35515;48.766;9.176;2023-03-15T03:56:04;98306.63;;;3.11;77.71
49611;BME280;35515;48.766;9.176;2023-03-15T03:58:31;98300.44;;;3.18;77.25
49611;BME280;35515;48.766;9.176;2023-03-15T04:00:57;98305.66;;;3.28;76.54
49611;BME280;35515;48.766;9.176;2023-03-15T04:03:24;98313.53;;;3.30;77.00
49611;BME280;35515;48.766;9.176;2023-03-15T04:05:52;98315.19;;;3.23;77.54
49611;BME280;35515;48.766;9.176;2023-03-15T04:08:19;98312.97;;;3.10;78.45
49611;BME280;35515;48.766;9.176;2023-03-15T04:10:49;98317.50;;;3.17;76.30
49611;BME280;35515;48.766;9.176;2023-03-15T04:13:17;98336.56;;;3.14;77.20
49611;BME280;35515;48.766;9.176;2023-03-15T04:15:44;98331.88;;;3.08;76.68
49611;BME280;35515;48.766;9.176;2023-03-15T04:18:10;98340.56;;;3.10;78.87
49611;BME280;35515;48.766;9.176;2023-03-15T04:20:37;98338.31;;;3.32;76.18
49611;BME280;35515;48.766;9.176;2023-03-15T04:23:03;98352.31;;;3.17;75.36
49611;BME280;35515;48.766;9.176;2023-03-15T04:25:31;98352.56;;;3.41;75.15
49611;BME280;35515;48.766;9.176;2023-03-15T04:27:59;98351.41;;;3.51;74.12
49611;BME280;35515;48.766;9.176;2023-03-15T04:30:28;98347.66;;;3.28;73.68
49611;BME280;35515;48.766;9.176;2023-03-15T04:32:56;98355.81;;;3.18;74.26
49611;BME280;35515;48.766;9.176;2023-03-15T04:35:24;98358.09;;;3.47;72.86
49611;BME280;35515;48.766;9.176;2023-03-15T04:37:51;98355.69;;;3.28;73.97
49611;BME280;35515;48.766;9.176;2023-03-15T04:40:18;98354.38;;;3.32;74.90
49611;BME280;35515;48.766;9.176;2023-03-15T04:42:48;98354.38;;;3.32;73.85
49611;BME280;35515;48.766;9.176;2023-03-15T04:45:16;98353.78;;;3.55;72.20
49611;BME280;35515;48.766;9.176;2023-03-15T04:47:42;98363.97;;;3.51;72.51
49611;BME280;35515;48.766;9.176;2023-03-15T04:50:10;98365.66;;;3.52;71.59
49611;BME280;35515;48.766;9.176;2023-03-15T04:52:37;98364.25;;;3.31;72.90
49611;BME280;35515;48.766;9.176;2023-03-15T04:55:04;98363.78;;;3.44;71.84
49611;BME280;35515;48.766;9.176;2023-03-15T04:57:31;98360.06;;;3.37;71.17
49611;BME280;35515;48.766;9.176;2023-03-15T04:59:57;98358.44;;;3.44;70.62
49611;BME280;35515;48.766;9.176;2023-03-15T05:02:25;98368.06;;;3.21;72.16
49611;BME280;35515;48.766;9.176;2023-03-15T05:04:52;98358.56;;;3.34;71.82
49611;BME280;35515;48.766;9.176;2023-03-15T05:07:19;98359.44;;;3.43;71.27
49611;BME280;35515;48.766;9.176;2023-03-15T05:09:45;98357.00;;;3.24;71.48
49611;BME280;35515;48.766;9.176;2023-03-15T05:12:12;98361.34;;;3.16;72.18
49611;BME280;35515;48.766;9.176;2023-03-15T05:14:39;98360.06;;;3.37;72.30
49611;BME280;35515;48.766;9.176;2023-03-15T05:17:06;98360.56;;;3.32;71.80
49611;BME280;35515;48.766;9.176;2023-03-15T05:19:35;98361.75;;;3.38;70.57
49611;BME280;35515;48.766;9.176;2023-03-15T05:22:01;98358.44;;;3.44;69.72
49611;BME280;35515;48.766;9.176;2023-03-15T05:24:28;98359.78;;;3.48;69.15
49611;BME280;35515;48.766;9.176;2023-03-15T05:26:55;98361.03;;;3.28;70.38
49611;BME280;35515;48.766;9.176;2023-03-15T05:29:22;98364.00;;;3.08;71.25
49611;BME280;35515;48.766;9.176;2023-03-15T05:31:48;98360.19;;;3.19;70.18
49611;BME280;35515;48.766;9.176;2023-03-15T05:34:16;98361.69;;;3.13;70.91
49611;BME280;35515;48.766;9.176;2023-03-15T05:36:44;98360.44;;;2.99;71.75
49611;BME280;35515;48.766;9.176;2023-03-15T05:39:11;98371.25;;;2.90;71.68
49611;BME280;35515;48.766;9.176;2023-03-15T05:41:41;98369.72;;;3.22;70.73
49611;BME280;35515;48.766;9.176;2023-03-15T05:44:07;98370.00;;;3.10;70.36
49611;BME280;35515;48.766;9.176;2023-03-15T05:46:34;98368.63;;;2.98;71.87
49611;BME280;35515;48.766;9.176;2023-03-15T05:49:00;98367.72;;;3.24;71.17
49611;BME280;35515;48.766;9.176;2023-03-15T05:51:27;98383.59;;;3.17;70.45
49611;BME280;35515;48.766;9.176;2023-03-15T05:53:54;98391.22;;;3.38;68.15
49611;BME280;35515;48.766;9.176;2023-03-15T05:56:21;98388.00;;;3.34;69.44
49611;BME280;35515;48.766;9.176;2023-03-15T05:58:48;98379.94;;;3.26;69.71
49611;BME280;35515;48.766;9.176;2023-03-15T06:01:14;98382.78;;;2.90;71.39
49611;BME280;35515;48.766;9.176;2023-03-15T06:03:41;98383.25;;;2.77;73.43
49611;BME280;35515;48.766;9.176;2023-03-15T06:06:07;98386.69;;;2.70;74.71
49611;BME280;35515;48.766;9.176;2023-03-15T06:08:34;98383.25;;;2.77;74.66
49611;BME280;35515;48.766;9.176;2023-03-15T06:11:02;98389.59;;;2.76;74.79
49611;BME280;35515;48.766;9.176;2023-03-15T06:13:28;98395.59;;;2.78;74.95
49611;BME280;35515;48.766;9.176;2023-03-15T06:15:55;98398.91;;;2.72;74.62
49611;BME280;35515;48.766;9.176;2023-03-15T06:18:21;98404.50;;;2.61;76.01
49611;BME280;35515;48.766;9.176;2023-03-15T06:20:48;98397.69;;;2.40;76.93
49611;BME280;35515;48.766;9.176;2023-03-15T06:23:14;98403.16;;;2.57;77.25
49611;BME280;35515;48.766;9.176;2023-03-15T06:25:41;98397.06;;;2.46;77.50
49611;BME280;35515;48.766;9.176;2023-03-15T06:28:09;98398.41;;;2.50;77.01
49611;BME280;35515;48.766;9.176;2023-03-15T06:30:35;98406.19;;;2.62;75.55
49611;BME280;35515;48.766;9.176;2023-03-15T06:33:02;98407.38;;;2.86;72.75
49611;BME280;35515;48.766;9.176;2023-03-15T06:35:29;98414.69;;;2.83;72.02
49611;BME280;35515;48.766;9.176;2023-03-15T06:37:55;98412.47;;;3.05;71.52
49611;BME280;35515;48.766;9.176;2023-03-15T06:40:22;98408.78;;;3.32;69.48
49611;BME280;35515;48.766;9.176;2023-03-15T06:42:48;98415.09;;;3.23;68.93
49611;BME280;35515;48.766;9.176;2023-03-15T06:45:16;98420.63;;;3.30;69.59
49611;BME280;35515;48.766;9.176;2023-03-15T06:47:43;98416.03;;;3.48;68.29
49611;BME280;35515;48.766;9.176;2023-03-15T06:50:10;98415.47;;;3.37;69.61
49611;BME280;35515;48.766;9.176;2023-03-15T06:52:37;98419.03;;;3.45;68.35
49611;BME280;35515;48.766;9.176;2023-03-15T06:55:04;98423.31;;;3.30;69.70
49611;BME280;35515;48.766;9.176;2023-03-15T06:57:31;98420.88;;;3.53;67.91
49611;BME280;35515;48.766;9.176;2023-03-15T06:59:57;98416.66;;;3.42;67.91
49611;BME280;35515;48.766;9.176;2023-03-15T07:02:25;98424.50;;;3.35;68.90
49611;BME280;35515;48.766;9.176;2023-03-15T07:04:52;98420.97;;;3.27;70.03
49611;BME280;35515;48.766;9.176;2023-03-15T07:07:18;98424.78;;;3.59;68.17
49611;BME280;35515;48.766;9.176;2023-03-15T07:09:45;98416.50;;;3.44;69.02
49611;BME280;35515;48.766;9.176;2023-03-15T07:12:12;98425.41;;;3.53;68.43
49611;BME280;35515;48.766;9.176;2023-03-15T07:14:38;98421.56;;;3.47;68.37
49611;BME280;35515;48.766;9.176;2023-03-15T07:17:05;98426.22;;;3.45;68.50
49611;BME280;35515;48.766;9.176;2023-03-15T07:19:33;98435.41;;;3.42;69.31
49611;BME280;35515;48.766;9.176;2023-03-15T07:22:00;98428.47;;;3.66;66.82
49611;BME280;35515;48.766;9.176;2023-03-15T07:24:29;98433.97;;;3.56;67.41
49611;BME280;35515;48.766;9.176;2023-03-15T07:26:56;98441.47;;;3.44;67.75
49611;BME280;35515;48.766;9.176;2023-03-15T07:29:25;98446.97;;;3.43;69.12
49611;BME280;35515;48.766;9.176;2023-03-15T07:31:51;98447.25;;;3.74;67.67
49611;BME280;35515;48.766;9.176;2023-03-15T07:34:18;98456.16;;;3.75;67.81
49611;BME280;35515;48.766;9.176;2023-03-15T07:36:47;98457.94;;;3.66;67.09
49611;BME280;35515;48.766;9.176;2023-03-15T07:39:14;98450.59;;;3.68;66.40
49611;BME280;35515;48.766;9.176;2023-03-15T07:41:41;98455.16;;;3.84;66.11
49611;BME280;35515;48.766;9.176;2023-03-15T07:44:08;98461.34;;;3.76;66.77
49611;BME280;35515;48.766;9.176;2023-03-15T07:46:34;98466.72;;;3.84;67.91
49611;BME280;35515;48.766;9.176;2023-03-15T07:49:01;98460.72;;;3.99;66.40
49611;BME280;35515;48.766;9.176;2023-03-15T07:51:28;98466.38;;;3.88;65.98
49611;BME280;35515;48.766;9.176;2023-03-15T07:53:55;98467.06;;;3.81;67.08
49611;BME280;35515;48.766;9.176;2023-03-15T07:56:22;98465.03;;;3.83;66.63
49611;BME280;35515;48.766;9.176;2023-03-15T07:58:48;98463.53;;;3.89;68.04
49611;BME280;35515;48.766;9.176;2023-03-15T08:01:15;98452.34;;;3.94;67.47
49611;BME280;35515;48.766;9.176;2023-03-15T08:03:41;98456.69;;;3.87;67.28
49611;BME280;35515;48.766;9.176;2023-03-15T08:06:08;98451.00;;;3.98;66.93
49611;BME280;35515;48.766;9.176;2023-03-15T08:08:34;98455.72;;;4.04;66.22
49611;BME280;35515;48.766;9.176;2023-03-15T08:11:03;98456.56;;;4.05;65.74
49611;BME280;35515;48.766;9.176;2023-03-15T08:13:30;98462.25;;;4.10;65.95
49611;BME280;35515;48.766;9.176;2023-03-15T08:15:57;98463.69;;;3.88;65.91
49611;BME280;35515;48.766;9.176;2023-03-15T08:18:23;98465.09;;;4.00;66.66
49611;BME280;35515;48.766;9.176;2023-03-15T08:20:53;98460.09;;;4.13;65.53
49611;BME280;35515;48.766;9.176;2023-03-15T08:23:19;98468.09;;;4.05;66.11
49611;BME280;35515;48.766;9.176;2023-03-15T08:25:46;98462.78;;;4.38;64.45
49611;BME280;35515;48.766;9.176;2023-03-15T08:28:15;98466.47;;;4.21;65.73
49611;BME280;35515;48.766;9.176;2023-03-15T08:30:42;98463.25;;;4.09;66.66
49611;BME280;35515;48.766;9.176;2023-03-15T08:33:09;98467.13;;;4.14;66.19
49611;BME280;35515;48.766;9.176;2023-03-15T08:35:36;98465.94;;;4.17;66.32
49611;BME280;35515;48.766;9.176;2023-03-15T08:38:03;98470.34;;;4.43;65.91
49611;BME280;35515;48.766;9.176;2023-03-15T08:40:30;98476.38;;;4.37;65.15
49611;BME280;35515;48.766;9.176;2023-03-15T08:42:56;98471.53;;;4.57;63.62
49611;BME280;35515;48.766;9.176;2023-03-15T08:45:25;98471.53;;;4.40;64.91
49611;BME280;35515;48.766;9.176;2023-03-15T08:47:55;98473.19;;;4.74;63.36
49611;BME280;35515;48.766;9.176;2023-03-15T08:50:22;98472.53;;;4.47;64.34
49611;BME280;35515;48.766;9.176;2023-03-15T08:52:49;98476.88;;;4.65;63.59
49611;BME280;35515;48.766;9.176;2023-03-15T08:55:16;98470.88;;;4.63;64.37
49611;BME280;35515;48.766;9.176;2023-03-15T08:57:42;98481.94;;;4.84;61.90
49611;BME280;35515;48.766;9.176;2023-03-15T09:00:10;98486.31;;;4.77;61.97
49611;BME280;35515;48.766;9.176;2023-03-15T09:02:42;98480.25;;;4.75;60.62
49611;BME280;35515;48.766;9.176;2023-03-15T09:05:09;98482.06;;;5.08;59.22
49611;BME280;35515;48.766;9.176;2023-03-15T09:07:37;98491.63;;;5.10;58.72
49611;BME280;35515;48.766;9.176;2023-03-15T09:10:04;98498.53;;;4.96;59.22
49611;BME280;35515;48.766;9.176;2023-03-15T09:12:31;98501.72;;;4.83;61.18
49611;BME280;35515;48.766;9.176;2023-03-15T09:14:57;98508.25;;;4.73;62.02
49611;BME280;35515;48.766;9.176;2023-03-15T09:17:24;98491.84;;;4.84;59.89
49611;BME280;35515;48.766;9.176;2023-03-15T09:19:52;98491.50;;;4.79;61.84
49611;BME280;35515;48.766;9.176;2023-03-15T09:22:18;98503.75;;;4.90;60.85
49611;BME280;35515;48.766;9.176;2023-03-15T09:24:45;98512.44;;;4.92;61.14
49611;BME280;35515;48.766;9.176;2023-03-15T09:27:11;98506.06;;;5.01;60.51
49611;BME280;35515;48.766;9.176;2023-03-15T09:29:38;98511.09;;;5.12;58.26
49611;BME280;35515;48.766;9.176;2023-03-15T09:32:04;98503.19;;;5.19;58.40
49611;BME280;35515;48.766;9.176;2023-03-15T09:34:31;98503.19;;;5.19;59.30
49611;BME280;35515;48.766;9.176;2023-03-15T09:36:59;98512.09;;;5.28;58.08
49611;BME280;35515;48.766;9.176;2023-03-15T09:39:25;98511.41;;;5.26;58.42
49611;BME280;35515;48.766;9.176;2023-03-15T09:41:54;98520.31;;;5.18;58.38
49611;BME280;35515;48.766;9.176;2023-03-15T09:44:38;98518.97;;;5.22;56.49
49611;BME280;35515;48.766;9.176;2023-03-15T09:47:15;98518.63;;;5.33;57.00
49611;BME280;35515;48.766;9.176;2023-03-15T09:49:49;98511.06;;;5.45;57.47
49611;BME280;35515;48.766;9.176;2023-03-15T09:52:31;98514.94;;;5.34;57.63
49611;BME280;35515;48.766;9.176;2023-03-15T09:55:01;98517.78;;;5.33;58.53
49611;BME280;35515;48.766;9.176;2023-03-15T09:57:35;98528.16;;;5.44;57.12
49611;BME280;35515;48.766;9.176;2023-03-15T10:00:06;98524.66;;;5.35;59.97
49611;BME280;35515;48.766;9.176;2023-03-15T10:02:41;98522.78;;;5.52;57.60
49611;BME280;35515;48.766;9.176;2023-03-15T10:05:13;98523.16;;;5.41;57.65
49611;BME280;35515;48.766;9.176;2023-03-15T10:07:44;98517.28;;;5.38;57.35
49611;BME280;35515;48.766;9.176;2023-03-15T10:10:16;98514.44;;;5.31;58.22
49611;BME280;35515;48.766;9.176;2023-03-15T10:12:43;98511.03;;;5.37;57.67
49611;BME280;35515;48.766;9.176;2023-03-15T10:15:23;98518.59;;;5.42;58.22
49611;BME280;35515;48.766;9.176;2023-03-15T10:18:04;98519.06;;;5.62;58.17
49611;BME280;35515;48.766;9.176;2023-03-15T10:20:39;98520.72;;;5.63;57.00
49611;BME280;35515;48.766;9.176;2023-03-15T10:23:13;98511.09;;;5.77;55.62
49611;BME280;35515;48.766;9.176;2023-03-15T10:25:43;98509.09;;;5.79;56.73
49611;BME280;35515;48.766;9.176;2023-03-15T10:28:12;98505.25;;;5.73;55.10
49611;BME280;35515;48.766;9.176;2023-03-15T10:30:46;98498.81;;;5.82;55.76
49611;BME280;35515;48.766;9.176;2023-03-15T10:33:15;98508.41;;;5.77;56.86
49611;BME280;35515;48.766;9.176;2023-03-15T10:35:42;98506.72;;;5.84;54.05
49611;BME280;35515;48.766;9.176;2023-03-15T10:38:15;98502.53;;;5.81;54.69
49611;BME280;35515;48.766;9.176;2023-03-15T10:40:43;98508.19;;;5.95;53.23
49611;BME280;35515;48.766;9.176;2023-03-15T10:43:19;98498.09;;;6.05;53.54
49611;BME280;35515;48.766;9.176;2023-03-15T10:45:48;98495.03;;;6.08;53.32
49611;BME280;35515;48.766;9.176;2023-03-15T10:48:22;98509.38;;;6.24;53.15
49611;BME280;35515;48.766;9.176;2023-03-15T10:50:49;98506.75;;;6.15;53.58
49611;BME280;35515;48.766;9.176;2023-03-15T10:53:18;98489.59;;;6.16;53.80
49611;BME280;35515;48.766;9.176;2023-03-15T10:55:47;98493.13;;;6.17;52.91
49611;BME280;35515;48.766;9.176;2023-03-15T10:58:19;98496.16;;;6.14;54.08
49611;BME280;35515;48.766;9.176;2023-03-15T11:00:51;98497.50;;;6.18;53.71
49611;BME280;35515;48.766;9.176;2023-03-15T11:03:19;98495.50;;;6.43;52.89
49611;BME280;35515;48.766;9.176;2023-03-15T11:05:48;98497.97;;;6.22;53.43
49611;BME280;35515;48.766;9.176;2023-03-15T11:08:16;98492.47;;;6.15;53.79
49611;BME280;35515;48.766;9.176;2023-03-15T11:10:46;98496.41;;;5.96;54.70
49611;BME280;35515;48.766;9.176;2023-03-15T11:13:19;98490.66;;;6.07;53.46
49611;BME280;35515;48.766;9.176;2023-03-15T11:15:52;98497.44;;;6.26;53.11
49611;BME280;35515;48.766;9.176;2023-03-15T11:18:25;98494.50;;;6.13;53.57
49611;BME280;35515;48.766;9.176;2023-03-15T11:20:54;98485.84;;;6.26;53.74
49611;BME280;35515;48.766;9.176;2023-03-15T11:23:24;98498.94;;;6.29;53.80
49611;BME280;35515;48.766;9.176;2023-03-15T11:25:53;98490.91;;;6.21;54.07
49611;BME280;35515;48.766;9.176;2023-03-15T11:28:23;98486.16;;;6.31;52.51
49611;BME280;35515;48.766;9.176;2023-03-15T11:30:51;98485.09;;;6.40;52.41
49611;BME280;35515;48.766;9.176;2023-03-15T11:33:26;98479.47;;;6.27;52.04
49611;BME280;35515;48.766;9.176;2023-03-15T11:35:58;98486.84;;;6.25;53.01
49611;BME280;35515;48.766;9.176;2023-03-15T11:38:29;98483.41;;;6.39;51.42
49611;BME280;35515;48.766;9.176;2023-03-15T11:41:01;98479.97;;;6.22;52.99
49611;BME280;35515;48.766;9.176;2023-03-15T11:43:40;98478.50;;;6.43;52.36
49611;BME280;35515;48.766;9.176;2023-03-15T11:46:16;98478.84;;;6.40;52.17
49611;BME280;35515;48.766;9.176;2023-03-15T11:48:49;98483.78;;;6.36;52.17
49611;BME280;35515;48.766;9.176;2023-03-15T11:51:17;98484.28;;;6.31;52.33
49611;BME280;35515;48.766;9.176;2023-03-15T11:53:47;98485.47;;;6.29;53.20
49611;BME280;35515;48.766;9.176;2023-03-15T11:56:25;98483.41;;;6.62;50.83
49611;BME280;35515;48.766;9.176;2023-03-15T11:59:04;98481.97;;;6.75;48.60
49611;BME280;35515;48.766;9.176;2023-03-15T12:01:33;98492.41;;;6.55;48.79
49611;BME280;35515;48.766;9.176;2023-03-15T12:10:41;98481.75;;;6.61;46.58
49611;BME280;35515;48.766;9.176;2023-03-15T12:13:21;98487.72;;;6.48;47.54
49611;BME280;35515;48.766;9.176;2023-03-15T12:15:49;98499.69;;;6.46;48.76
49611;BME280;35515;48.766;9.176;2023-03-15T12:18:19;98495.84;;;6.40;48.54
49611;BME280;35515;48.766;9.176;2023-03-15T12:20:55;98488.66;;;6.56;48.12
49611;BME280;35515;48.766;9.176;2023-03-15T12:23:36;98496.28;;;6.52;48.70
49611;BME280;35515;48.766;9.176;2023-03-15T12:26:09;98498.72;;;6.62;48.78
49611;BME280;35515;48.766;9.176;2023-03-15T12:28:48;98492.63;;;6.68;49.51
49611;BME280;35515;48.766;9.176;2023-03-15T12:31:15;98483.16;;;6.72;48.04
49611;BME280;35515;48.766;9.176;2023-03-15T12:33:47;98487.44;;;6.66;48.14
49611;BME280;35515;48.766;9.176;2023-03-15T12:36:33;98478.78;;;6.71;48.09
49611;BME280;35515;48.766;9.176;2023-03-15T12:39:19;98491.19;;;6.80;48.61
49611;BME280;35515;48.766;9.176;2023-03-15T12:41:48;98485.78;;;6.80;48.27
49611;BME280;35515;48.766;9.176;2023-03-15T12:44:23;98491.06;;;6.74;48.74
49611;BME280;35515;48.766;9.176;2023-03-15T12:46:57;98483.41;;;6.85;48.44
49611;BME280;35515;48.766;9.176;2023-03-15T12:49:30;98474.13;;;6.88;49.37
49611;BME280;35515;48.766;9.176;2023-03-15T12:51:59;98480.63;;;6.94;48.26
49611;BME280;35515;48.766;9.176;2023-03-15T12:54:31;98490.91;;;6.90;48.44
49611;BME280;35515;48.766;9.176;2023-03-15T12:57:01;98492.13;;;6.88;48.58
49611;BME280;35515;48.766;9.176;2023-03-15T12:59:37;98494.41;;;6.76;50.00
49611;BME280;35515;48.766;9.176;2023-03-15T13:02:23;98499.19;;;6.89;50.02
49611;BME280;35515;48.766;9.176;2023-03-15T13:04:58;98500.63;;;6.76;50.60
49611;BME280;35515;48.766;9.176;2023-03-15T13:07:31;98513.72;;;6.79;50.76
49611;BME280;35515;48.766;9.176;2023-03-15T13:10:18;98517.84;;;6.90;52.67
49611;BME280;35515;48.766;9.176;2023-03-15T13:12:52;98524.25;;;6.66;55.87
49611;BME280;35515;48.766;9.176;2023-03-15T13:15:26;98523.72;;;6.47;57.98
49611;BME280;35515;48.766;9.176;2023-03-15T13:17:56;98519.94;;;6.33;59.48
49611;BME280;35515;48.766;9.176;2023-03-15T13:20:40;98511.25;;;6.23;60.56
49611;BME280;35515;48.766;9.176;2023-03-15T13:23:13;98507.25;;;6.42;60.25
49611;BME280;35515;48.766;9.176;2023-03-15T13:25:49;98506.25;;;6.43;60.00